Time;durP1;ratioP1;P1;durP2;ratioP2;P2;SDS_P1;SDS_P2;PMS_P1;PMS_P2;Temp;Humidity;BMP_temperature;BMP_pressure;BME280_temperature;BME280_humidity;BME280_pressure;Samples;Min_cycle;Max_cycle;Signal;HPM_P1;HPM_P2
2022/07/18 00:01:50;;;;;;;7.00;2.37;;;;;;;14.03;100.00;99716.06;4397439;32;20070;-72
2022/07/18 00:04:16;;;;;;;13.43;4.40;;;;;;;13.77;100.00;99675.19;4386485;32;20389;-71
2022/07/18 00:06:43;;;;;;;5.37;2.28;;;;;;;13.43;100.00;99631.25;4385750;32;20023;-73
2022/07/18 00:09:09;;;;;;;3.03;2.00;;;;;;;13.87;100.00;99723.22;4399724;32;20108;-71
2022/07/18 00:11:36;;;;;;;5.45;2.17;;;;;;;13.90;100.00;99722.69;4398630;32;20069;-72
2022/07/18 00:14:03;;;;;;;1.70;1.60;;;;;;;13.50;100.00;99668.94;4397901;32;20067;-72
2022/07/18 00:16:29;;;;;;;3.65;1.98;;;;;;;13.47;100.00;99674.88;4385573;32;20537;-72
2022/07/18 00:18:58;;;;;;;4.10;1.62;;;;;;;13.53;100.00;99690.06;4398929;32;20026;-71
2022/07/18 00:21:25;;;;;;;4.60;2.28;;;;;;;13.48;100.00;99681.91;4386244;32;20232;-71
2022/07/18 00:23:51;;;;;;;3.05;2.75;;;;;;;13.60;100.00;99713.16;4400019;32;20072;-71
2022/07/18 00:26:18;;;;;;;4.72;2.10;;;;;;;13.33;100.00;99669.84;4397713;32;20051;-71
2022/07/18 00:28:44;;;;;;;1.67;1.58;;;;;;;13.53;100.00;99717.13;4400201;32;20389;-71
2022/07/18 00:31:11;;;;;;;3.85;2.55;;;;;;;13.35;100.00;99689.31;4399432;32;20042;-72
2022/07/18 00:33:37;;;;;;;2.10;1.58;;;;;;;12.98;100.00;99652.06;4398884;32;20061;-72
2022/07/18 00:36:04;;;;;;;6.87;2.00;;;;;;;13.31;100.00;99717.94;4398987;32;20031;-72
2022/07/18 00:38:30;;;;;;;6.03;2.70;;;;;;;12.98;100.00;99684.50;4399321;32;20459;-72
2022/07/18 00:40:57;;;;;;;7.75;3.00;;;;;;;13.27;100.00;99724.91;4399384;32;20064;-72
2022/07/18 00:43:23;;;;;;;3.90;2.37;;;;;;;13.02;100.00;99674.84;4400437;32;20031;-72
2022/07/18 00:45:52;;;;;;;6.37;2.60;;;;;;;13.25;100.00;99722.44;4398826;32;20106;-72
2022/07/18 00:48:19;;;;;;;6.05;2.70;;;;;;;13.30;100.00;99718.97;4384132;32;20031;-72
2022/07/18 00:50:46;;;;;;;7.37;3.30;;;;;;;13.25;100.00;99722.44;4399360;32;20065;-73
2022/07/18 00:53:13;;;;;;;5.75;2.50;;;;;;;13.23;100.00;99730.00;4400254;32;20051;-72
2022/07/18 00:55:43;;;;;;;9.23;2.47;;;;;;;13.09;100.00;99685.47;4386411;32;20068;-72
2022/07/18 00:58:10;;;;;;;6.12;2.53;;;;;;;13.47;100.00;99726.28;4399487;32;20368;-72
2022/07/18 01:03:23;;;;;;;3.50;2.22;;;;;;;13.46;100.00;99727.34;4386935;32;20043;-72
2022/07/18 01:05:49;;;;;;;4.65;2.85;;;;;;;13.43;100.00;99726.78;4399097;32;20379;-72
2022/07/18 01:08:16;;;;;;;5.57;2.50;;;;;;;13.56;100.00;99722.03;4397847;32;20043;-73
2022/07/18 01:10:43;;;;;;;4.05;2.03;;;;;;;13.69;100.00;99727.06;4399490;32;20043;-70
2022/07/18 01:13:09;;;;;;;7.18;2.25;;;;;;;13.65;100.00;99698.06;4399079;32;20056;-70
2022/07/18 01:15:36;;;;;;;4.35;2.25;;;;;;;13.88;100.00;99713.19;4399331;32;20047;-73
2022/07/18 01:18:03;;;;;;;3.03;2.30;;;;;;;13.84;100.00;99720.19;4399386;32;20039;-73
2022/07/18 01:20:31;;;;;;;5.53;2.37;;;;;;;13.61;100.00;99703.19;4398827;32;20054;-72
2022/07/18 01:22:59;;;;;;;3.22;2.65;;;;;;;13.62;100.00;99710.22;4398778;32;20452;-73
2022/07/18 01:25:26;;;;;;;3.25;2.20;;;;;;;13.63;100.00;99722.69;4399096;32;20156;-72
2022/07/18 01:27:53;;;;;;;3.40;2.40;;;;;;;13.64;100.00;99721.59;4395429;32;20055;-73
2022/07/18 01:30:19;;;;;;;4.03;2.75;;;;;;;13.67;100.00;99704.84;4398135;32;20080;-73
2022/07/18 01:32:46;;;;;;;4.75;2.37;;;;;;;13.52;100.00;99666.81;4402107;32;20053;-72
2022/07/18 01:35:12;;;;;;;7.65;2.37;;;;;;;13.62;100.00;99683.16;4403144;32;20081;-72
2022/07/18 01:37:39;;;;;;;9.25;2.75;;;;;;;13.84;100.00;99722.91;4401518;32;20050;-72
2022/07/18 01:40:10;;;;;;;7.35;2.60;;;;;;;13.70;100.00;99674.56;4401440;32;20073;-73
2022/07/18 01:42:36;;;;;;;4.25;1.92;;;;;;;13.99;100.00;99720.34;4387097;32;20059;-70
2022/07/18 01:45:03;;;;;;;8.52;2.65;;;;;;;13.84;100.00;99672.28;4402268;32;20083;-72
2022/07/18 01:47:29;;;;;;;6.40;2.87;;;;;;;13.72;100.00;99682.44;4387835;32;20023;-72
2022/07/18 01:49:55;;;;;;;4.35;2.85;;;;;;;13.58;100.00;99661.19;4401087;32;20080;-72
2022/07/18 01:52:22;;;;;;;5.40;2.97;;;;;;;13.87;100.00;99717.00;4386932;32;20057;-72
2022/07/18 01:54:48;;;;;;;4.97;2.65;;;;;;;13.38;100.00;99672.59;4398473;32;20026;-71
2022/07/18 01:57:15;;;;;;;5.32;2.90;;;;;;;13.27;100.00;99676.22;4402317;32;20102;-71
2022/07/18 01:59:41;;;;;;;4.35;2.47;;;;;;;13.17;100.00;99681.50;4402056;32;20404;-71
2022/07/18 02:02:07;;;;;;;3.95;2.50;;;;;;;13.36;100.00;99734.25;4402001;32;20165;-71
2022/07/18 02:05:18;;;;;;;4.82;2.33;;;;;;;13.19;100.00;99730.75;4400949;32;20090;-71
2022/07/18 02:07:32;;;;;;;6.28;2.42;;;;;;;13.06;100.00;99697.56;4396500;32;20043;-71
2022/07/18 02:10:04;;;;;;;6.18;2.85;;;;;;;13.30;100.00;99740.63;4401997;32;20043;-72
2022/07/18 02:12:30;;;;;;;3.92;2.33;;;;;;;13.41;100.00;99730.78;4399505;32;20065;-71
2022/07/18 02:14:56;;;;;;;7.03;2.37;;;;;;;13.61;100.00;99741.06;4401591;32;20038;-71
2022/07/18 02:17:23;;;;;;;5.90;2.33;;;;;;;13.43;100.00;99702.44;4400454;32;20046;-71
2022/07/18 02:19:49;;;;;;;6.22;2.37;;;;;;;13.76;100.00;99754.75;4401868;32;20069;-71
2022/07/18 02:22:16;;;;;;;3.05;2.10;;;;;;;13.76;100.00;99724.97;4398647;32;20060;-71
2022/07/18 02:24:43;;;;;;;6.53;3.05;;;;;;;13.83;100.00;99726.69;4400786;32;20051;-71
2022/07/18 02:27:09;;;;;;;6.45;2.50;;;;;;;13.77;100.00;99701.47;4400946;32;20072;-71
2022/07/18 02:29:37;;;;;;;4.53;3.22;;;;;;;13.73;100.00;99690.31;4401284;32;20039;-72
2022/07/18 02:32:04;;;;;;;6.53;3.42;;;;;;;13.85;100.00;99701.00;4400211;32;20050;-71
2022/07/18 02:34:30;;;;;;;7.07;2.03;;;;;;;14.01;100.00;99745.28;4399643;32;20035;-71
2022/07/18 02:36:57;;;;;;;4.47;2.17;;;;;;;13.68;100.00;99701.06;4401936;32;20124;-71
2022/07/18 02:39:23;;;;;;;4.37;2.30;;;;;;;13.93;100.00;99727.59;4400177;32;20068;-71
2022/07/18 02:41:50;;;;;;;10.98;3.10;;;;;;;14.05;100.00;99730.16;4401347;32;20060;-71
2022/07/18 02:44:16;;;;;;;7.35;2.67;;;;;;;13.96;100.00;99727.09;4400710;32;20458;-71
2022/07/18 02:46:43;;;;;;;11.75;2.83;;;;;;;13.55;100.00;99693.38;4401213;32;20081;-71
2022/07/18 02:49:09;;;;;;;2.50;2.30;;;;;;;13.92;100.00;99741.41;4386930;32;20073;-71
2022/07/18 02:51:36;;;;;;;7.43;2.85;;;;;;;13.69;100.00;99748.72;4383862;32;20031;-71
2022/07/18 02:54:03;;;;;;;7.10;2.53;;;;;;;13.69;100.00;99731.66;4386880;32;20405;-70
2022/07/18 02:56:29;;;;;;;7.55;2.22;;;;;;;13.68;100.00;99724.63;4397800;32;20035;-70
2022/07/18 02:58:57;;;;;;;6.12;3.20;;;;;;;13.61;100.00;99687.75;4400519;32;20027;-71
2022/07/18 03:01:24;;;;;;;4.18;2.25;;;;;;;13.81;100.00;99732.34;4400245;32;20399;-72
2022/07/18 03:03:50;;;;;;;11.52;2.55;;;;;;;13.50;100.00;99702.25;4400259;32;20039;-72
2022/07/18 03:06:16;;;;;;;6.55;2.42;;;;;;;13.85;100.00;99741.59;4398180;32;20072;-72
2022/07/18 03:08:43;;;;;;;6.90;2.42;;;;;;;13.46;100.00;99697.59;4401064;32;20451;-72
2022/07/18 03:11:09;;;;;;;4.15;1.87;;;;;;;13.78;100.00;99736.34;4399999;32;20064;-72
2022/07/18 03:13:35;;;;;;;4.00;1.98;;;;;;;13.71;100.00;99735.75;4399733;32;20071;-72
2022/07/18 03:16:02;;;;;;;7.68;2.53;;;;;;;13.95;100.00;99739.00;4400115;32;20425;-71
2022/07/18 03:18:28;;;;;;;5.60;2.42;;;;;;;13.92;100.00;99730.56;4399119;32;20039;-71
2022/07/18 03:21:00;;;;;;;3.12;2.12;;;;;;;13.71;100.00;99697.06;4397531;32;20058;-72
2022/07/18 03:23:34;;;;;;;11.27;2.17;;;;;;;13.97;100.00;99736.03;4400424;32;20076;-71
2022/07/18 03:26:00;;;;;;;6.95;2.95;;;;;;;13.86;100.00;99734.28;4398950;32;20023;-72
2022/07/18 03:28:26;;;;;;;7.65;2.55;;;;;;;13.59;100.00;99710.72;4385778;32;20063;-72
2022/07/18 03:30:53;;;;;;;14.43;2.65;;;;;;;13.36;100.00;99696.37;4385222;32;20379;-72
2022/07/18 03:33:19;;;;;;;12.40;2.47;;;;;;;13.28;100.00;99694.09;4385426;32;20058;-72
2022/07/18 03:35:46;;;;;;;7.60;3.05;;;;;;;13.36;100.00;99715.31;4394131;32;20114;-72
2022/07/18 03:38:12;;;;;;;10.63;2.28;;;;;;;13.20;100.00;99703.44;4396881;32;20027;-72
2022/07/18 03:40:39;;;;;;;19.15;3.10;;;;;;;13.45;100.00;99748.16;4386375;32;20385;-72
2022/07/18 03:43:05;;;;;;;4.53;2.70;;;;;;;13.00;100.00;99693.19;4399507;32;20051;-72
2022/07/18 03:45:32;;;;;;;2.83;2.03;;;;;;;13.12;100.00;99703.06;4399501;32;20056;-72
2022/07/18 03:47:58;;;;;;;4.68;2.70;;;;;;;13.34;100.00;99735.56;4399598;32;20166;-72
2022/07/18 03:50:25;;;;;;;10.68;2.65;;;;;;;13.39;100.00;99752.69;4397842;32;20054;-72
2022/07/18 03:52:51;;;;;;;10.23;2.83;;;;;;;13.39;100.00;99749.97;4400166;32;20364;-72
2022/07/18 03:55:23;;;;;;;7.30;2.97;;;;;;;12.92;100.00;99671.97;4387023;32;20426;-72
2022/07/18 03:57:50;;;;;;;3.62;2.33;;;;;;;13.18;100.00;99704.75;4398475;32;20348;-72
2022/07/18 04:00:16;;;;;;;3.05;2.37;;;;;;;13.04;100.00;99697.03;4398600;32;20070;-72
2022/07/18 04:02:46;;;;;;;7.85;2.62;;;;;;;13.40;100.00;99751.63;4398617;32;20088;-72
2022/07/18 04:05:14;;;;;;;7.50;2.33;;;;;;;13.19;100.00;99701.00;4389199;32;20039;-72
2022/07/18 04:07:46;;;;;;;3.55;2.42;;;;;;;13.51;100.00;99746.31;4389944;32;20128;-71
2022/07/18 04:10:13;;;;;;;7.55;3.75;;;;;;;13.49;100.00;99749.28;4396838;32;20042;-71
2022/07/18 04:12:48;;;;;;;3.90;2.42;;;;;;;13.17;100.00;99703.94;4398832;32;20084;-71
2022/07/18 04:15:16;;;;;;;5.22;3.08;;;;;;;13.64;100.00;99745.94;4400840;32;20042;-73
2022/07/18 04:17:42;;;;;;;4.75;2.65;;;;;;;13.51;100.00;99697.63;4385046;32;20065;-71
2022/07/18 04:20:09;;;;;;;6.20;2.72;;;;;;;13.73;100.00;99722.78;4393969;32;20072;-71
2022/07/18 04:22:45;;;;;;;6.12;3.40;;;;;;;13.94;100.00;99745.47;4397907;32;20096;-72
2022/07/18 04:25:12;;;;;;;9.40;2.75;;;;;;;13.84;100.00;99702.06;4399644;32;20080;-72
2022/07/18 04:27:38;;;;;;;6.32;2.42;;;;;;;14.09;100.00;99733.19;4398005;32;20039;-72
2022/07/18 04:30:06;;;;;;;9.55;3.33;;;;;;;14.00;100.00;99700.31;4398610;32;20092;-70
2022/07/18 04:32:32;;;;;;;3.67;2.33;;;;;;;14.26;100.00;99741.19;4397310;32;20080;-72
2022/07/18 04:34:59;;;;;;;6.07;2.80;;;;;;;14.19;100.00;99697.25;4400251;32;20238;-73
2022/07/18 04:37:25;;;;;;;7.93;2.85;;;;;;;14.55;100.00;99749.87;4400480;32;20039;-74
2022/07/18 04:39:51;;;;;;;9.30;2.80;;;;;;;14.35;100.00;99709.84;4386356;32;20022;-74
2022/07/18 04:42:18;;;;;;;4.47;2.80;;;;;;;14.76;100.00;99750.88;4400373;32;20072;-73
2022/07/18 04:44:44;;;;;;;4.32;2.90;;;;;;;14.87;100.00;99747.16;4384208;32;20018;-74
2022/07/18 04:47:10;;;;;;;6.57;2.60;;;;;;;14.96;100.00;99749.37;4400297;32;20191;-74
2022/07/18 04:49:37;;;;;;;4.97;2.30;;;;;;;14.51;100.00;99670.97;4383887;32;20088;-73
2022/07/18 04:52:03;;;;;;;6.20;3.05;;;;;;;15.10;100.00;99747.84;4384629;32;20035;-73
2022/07/18 04:54:29;;;;;;;5.07;2.30;;;;;;;15.15;100.00;99747.84;4397328;32;20047;-73
2022/07/18 04:56:56;;;;;;;7.30;2.40;;;;;;;14.95;100.00;99702.47;4401133;32;20108;-73
2022/07/18 04:59:22;;;;;;;7.72;2.78;;;;;;;15.34;100.00;99750.94;4408157;32;20158;-74
2022/07/18 05:01:48;;;;;;;4.57;2.25;;;;;;;15.43;100.00;99756.72;4404075;32;20141;-73
2022/07/18 05:04:15;;;;;;;3.85;2.08;;;;;;;15.25;100.00;99709.13;4398864;32;20203;-73
2022/07/18 05:06:41;;;;;;;2.65;2.30;;;;;;;15.49;100.00;99744.78;4402326;32;20069;-74
2022/07/18 05:09:07;;;;;;;9.68;2.20;;;;;;;15.26;100.00;99716.19;4399606;32;20042;-73
2022/07/18 05:11:34;;;;;;;4.55;2.25;;;;;;;15.41;100.00;99723.56;4401490;32;20086;-73
2022/07/18 05:14:01;;;;;;;3.28;2.28;;;;;;;15.71;100.00;99752.72;4389480;32;20049;-73
2022/07/18 05:16:27;;;;;;;6.32;3.10;;;;;;;15.52;100.00;99711.66;4401490;32;20039;-73
2022/07/18 05:18:54;;;;;;;7.37;2.42;;;;;;;15.80;100.00;99755.78;4401423;32;20042;-73
2022/07/18 05:21:20;;;;;;;6.05;2.20;;;;;;;15.84;100.00;99756.87;4402070;32;20047;-73
2022/07/18 05:23:46;;;;;;;2.08;1.80;;;;;;;15.90;100.00;99772.09;4401119;32;20039;-73
2022/07/18 05:26:13;;;;;;;7.57;2.78;;;;;;;15.73;100.00;99725.31;4400271;32;20417;-73
2022/07/18 05:28:39;;;;;;;8.95;2.72;;;;;;;15.73;100.00;99712.59;4387236;32;20031;-72
2022/07/18 05:31:05;;;;;;;3.90;2.03;;;;;;;15.76;100.00;99703.06;4397031;32;20148;-72
2022/07/18 05:33:32;;;;;;;10.20;2.20;;;;;;;16.14;100.00;99747.19;4402394;32;20081;-72
2022/07/18 05:35:58;;;;;;;6.10;2.53;;;;;;;15.95;100.00;99717.00;4388036;32;20053;-72
2022/07/18 05:38:24;;;;;;;4.97;2.00;;;;;;;16.13;100.00;99745.53;4401946;32;20042;-72
2022/07/18 05:40:51;;;;;;;10.85;3.30;;;;;;;16.25;100.00;99756.97;4401359;32;20073;-72
2022/07/18 05:43:17;;;;;;;4.62;2.05;;;;;;;16.32;100.00;99757.56;4399257;32;20075;-73
2022/07/18 05:45:44;;;;;;;8.10;2.47;;;;;;;16.34;100.00;99752.66;4402822;32;20051;-72
2022/07/18 05:48:10;;;;;;;8.02;2.35;;;;;;;15.69;100.00;99642.81;4387388;32;20047;-73
2022/07/18 05:50:36;;;;;;;14.50;2.80;;;;;;;16.53;100.00;99749.41;4401686;32;20393;-74
2022/07/18 05:53:03;;;;;;;11.93;2.22;;;;;;;16.32;100.00;99724.94;4400446;32;20051;-75
2022/07/18 05:55:29;;;;;;;6.22;3.37;;;;;;;16.54;100.00;99745.59;4385222;32;20392;-75
2022/07/18 05:57:56;;;;;;;11.75;3.42;;;;;;;16.30;100.00;99712.69;4402062;32;20082;-74
2022/07/18 06:00:22;;;;;;;15.82;2.92;;;;;;;16.40;100.00;99706.44;4401572;32;20035;-74
2022/07/18 06:02:50;;;;;;;2.45;2.03;;;;;;;16.43;100.00;99711.34;4401240;32;20060;-74
2022/07/18 06:05:16;;;;;;;14.10;3.55;;;;;;;16.76;100.00;99747.22;4392421;32;20114;-75
2022/07/18 06:07:43;;;;;;;8.63;3.28;;;;;;;16.27;100.00;99681.44;4399546;32;20066;-75
2022/07/18 06:10:10;;;;;;;4.60;2.55;;;;;;;16.63;100.00;99743.97;4400933;32;20109;-75
2022/07/18 06:12:36;;;;;;;10.93;2.75;;;;;;;16.27;100.00;99696.94;4397033;32;20175;-73
2022/07/18 06:15:02;;;;;;;7.18;2.35;;;;;;;16.61;100.00;99708.09;4400202;32;20057;-75
2022/07/18 06:17:29;;;;;;;5.03;3.00;;;;;;;17.08;100.00;99735.25;4395351;32;20064;-76
2022/07/18 06:19:56;;;;;;;17.58;2.08;;;;;;;17.27;100.00;99736.28;4386263;32;20468;-76
2022/07/18 06:22:23;;;;;;;10.15;2.83;;;;;;;17.08;100.00;99695.25;4392913;32;20175;-74
2022/07/18 06:24:50;;;;;;;7.47;2.83;;;;;;;16.96;100.00;99698.28;4398368;32;20051;-75
2022/07/18 06:27:17;;;;;;;7.50;3.00;;;;;;;17.13;100.00;99697.13;4397942;32;20034;-76
2022/07/18 06:29:43;;;;;;;10.68;3.20;;;;;;;17.45;100.00;99725.88;4394519;32;20090;-74
2022/07/18 06:32:10;;;;;;;11.90;2.33;;;;;;;17.28;100.00;99696.25;4387993;32;20084;-74
2022/07/18 06:34:36;;;;;;;4.37;2.90;;;;;;;16.92;100.00;99696.37;4400245;32;20128;-75
2022/07/18 06:37:02;;;;;;;5.30;2.53;;;;;;;17.43;100.00;99734.31;4382045;32;20076;-76
2022/07/18 06:39:29;;;;;;;8.35;2.75;;;;;;;17.12;100.00;99706.38;4394297;32;20044;-74
2022/07/18 06:41:55;;;;;;;8.93;2.75;;;;;;;17.43;100.00;99746.00;4389553;32;20039;-75
2022/07/18 06:44:21;;;;;;;5.40;2.22;;;;;;;17.62;100.00;99750.84;4391654;32;20182;-83
2022/07/18 06:46:48;;;;;;;11.95;2.15;;;;;;;17.50;100.00;99717.69;4394759;32;20085;-84
2022/07/18 06:49:15;;;;;;;5.35;2.55;;;;;;;17.23;100.00;99669.88;4387390;32;20195;-84
2022/07/18 06:51:41;;;;;;;3.03;1.85;;;;;;;17.87;100.00;99754.53;4397843;32;20073;-83
2022/07/18 06:54:08;;;;;;;9.43;2.50;;;;;;;17.69;100.00;99758.72;4401045;32;20055;-84
2022/07/18 06:56:34;;;;;;;4.65;1.55;;;;;;;17.51;100.00;99708.44;4400292;32;20052;-85
2022/07/18 06:59:01;;;;;;;6.20;2.25;;;;;;;17.93;100.00;99759.72;4400628;32;20031;-82
2022/07/18 07:01:27;;;;;;;9.43;2.08;;;;;;;17.97;100.00;99755.34;4400635;32;20362;-84
2022/07/18 07:03:54;;;;;;;5.57;2.58;;;;;;;17.77;100.00;99707.22;4399715;32;20043;-84
2022/07/18 07:06:20;;;;;;;8.18;2.17;;;;;;;17.96;100.00;99715.56;4380164;32;20171;-85
2022/07/18 07:08:46;;;;;;;4.47;1.95;;;;;;;18.33;100.00;99751.56;4397519;32;20085;-84
2022/07/18 07:11:13;;;;;;;9.00;1.85;;;;;;;18.23;100.00;99702.59;4386033;32;20400;-85
2022/07/18 07:13:39;;;;;;;2.08;1.55;;;;;;;18.57;100.00;99761.75;4385661;32;20380;-82
2022/07/18 07:16:06;;;;;;;8.20;1.80;;;;;;;17.89;100.00;99657.06;4399730;32;20158;-83
2022/07/18 07:18:32;;;;;;;4.25;2.28;;;;;;;18.46;100.00;99748.22;4396855;32;20035;-84
2022/07/18 07:20:59;;;;;;;4.30;1.85;;;;;;;18.42;100.00;99755.31;4382921;32;20040;-83
2022/07/18 07:23:26;;;;;;;5.30;2.20;;;;;;;18.59;100.00;99743.19;4385148;32;20156;-83
2022/07/18 07:25:52;;;;;;;4.93;1.87;;;;;;;18.69;100.00;99756.75;4397455;32;20347;-80
2022/07/18 07:28:18;;;;;;;1.45;1.35;;;;;;;18.73;100.00;99754.25;4381675;32;20137;-82
2022/07/18 07:30:45;;;;;;;6.45;1.62;;;;;;;18.47;100.00;99719.81;4384967;32;20076;-82
2022/07/18 07:33:11;;;;;;;2.25;1.80;;;;;;;18.49;100.00;99723.09;4385151;32;20039;-84
2022/07/18 07:35:38;;;;;;;6.68;1.95;;;;;;;18.55;100.00;99758.50;4399532;32;20026;-82
2022/07/18 07:38:04;;;;;;;3.85;1.55;;;;;;;18.54;100.00;99694.16;4383952;32;20069;-86
2022/07/18 07:40:31;;;;;;;8.20;1.83;;;;;;;19.04;100.00;99754.81;4384013;32;20303;-83
2022/07/18 07:43:14;;;;;;;4.00;1.30;;;;;;;18.75;100.00;99709.22;4383931;32;20039;-85
2022/07/18 07:45:45;;;;;;;5.93;1.10;;;;;;;19.12;100.00;99745.19;4385708;32;20046;-73
2022/07/18 07:48:18;;;;;;;1.70;1.30;;;;;;;19.15;98.95;99750.88;4383345;32;20061;-74
2022/07/18 07:50:45;;;;;;;5.50;1.30;;;;;;;19.28;96.67;99754.84;4383745;32;20760;-73
2022/07/18 07:53:11;;;;;;;6.95;1.75;;;;;;;19.37;97.13;99746.81;4399761;32;20038;-74
2022/07/18 07:55:37;;;;;;;10.23;2.42;;;;;;;19.48;95.58;99747.50;4400735;32;20060;-73
2022/07/18 07:58:05;;;;;;;1.90;1.73;;;;;;;19.36;97.29;99712.44;4400063;32;20073;-76
2022/07/18 08:00:31;;;;;;;1.52;1.42;;;;;;;19.53;97.25;99739.25;4394231;32;20072;-75
2022/07/18 08:03:01;;;;;;;5.22;1.52;;;;;;;19.79;94.81;99764.37;4398199;32;20060;-76
2022/07/18 08:05:38;;;;;;;3.87;1.52;;;;;;;19.84;91.44;99761.56;4401332;32;20072;-74
2022/07/18 08:08:06;;;;;;;1.40;1.30;;;;;;;19.76;91.14;99748.56;4399284;32;20039;-77
2022/07/18 08:10:32;;;;;;;2.03;1.30;;;;;;;19.70;89.03;99733.31;4385326;32;20035;-76
2022/07/18 08:12:58;;;;;;;4.87;2.33;;;;;;;19.75;89.05;99716.84;4395539;32;20246;-76
2022/07/18 08:15:26;;;;;;;5.43;1.40;;;;;;;19.73;94.40;99725.34;4399255;32;20046;-76
2022/07/18 08:17:52;;;;;;;3.45;1.52;;;;;;;19.52;92.55;99710.34;4394896;32;20064;-76
2022/07/18 08:20:19;;;;;;;3.90;1.42;;;;;;;20.16;92.56;99765.50;4392421;32;20047;-76
2022/07/18 08:23:03;;;;;;;1.70;1.27;;;;;;;20.37;92.45;99757.00;4397873;32;20082;-76
2022/07/18 08:25:32;;;;;;;1.92;1.12;;;;;;;20.40;94.04;99756.41;4384689;32;20050;-78
2022/07/18 08:28:01;;;;;;;2.53;1.40;;;;;;;20.57;90.23;99766.81;4382526;32;20026;-83
2022/07/18 08:30:30;;;;;;;5.40;1.30;;;;;;;20.68;91.62;99763.63;4379097;32;20027;-79
2022/07/18 08:32:58;;;;;;;3.37;1.45;;;;;;;20.54;89.18;99770.94;4393802;32;20058;-80
2022/07/18 08:35:25;;;;;;;3.78;1.37;;;;;;;20.45;89.21;99759.06;4395687;32;20053;-82
2022/07/18 08:37:52;;;;;;;2.37;1.35;;;;;;;20.35;86.73;99720.94;4397554;32;20035;-77
2022/07/18 08:40:19;;;;;;;2.90;1.15;;;;;;;20.21;83.45;99721.69;4398958;32;20039;-78
2022/07/18 08:42:49;;;;;;;3.05;1.87;;;;;;;20.19;85.17;99707.50;4387311;32;20051;-79
2022/07/18 08:45:18;;;;;;;3.40;1.35;;;;;;;20.35;88.54;99737.34;4378044;32;20385;-78
2022/07/18 08:47:45;;;;;;;3.05;1.35;;;;;;;20.50;85.14;99756.22;4386742;32;20419;-80
2022/07/18 08:50:12;;;;;;;2.60;1.70;;;;;;;20.39;85.55;99716.50;4382534;32;20040;-77
2022/07/18 08:52:39;;;;;;;1.85;1.50;;;;;;;20.39;86.09;99760.25;4386729;32;20043;-79
2022/07/18 08:55:10;;;;;;;2.08;1.40;;;;;;;20.55;80.42;99715.16;4387806;32;20043;-77
2022/07/18 08:57:37;;;;;;;2.92;1.40;;;;;;;21.20;78.53;99741.66;4392462;32;20078;-77
2022/07/18 09:00:06;;;;;;;3.10;1.35;;;;;;;21.58;73.87;99740.66;4385967;32;20385;-77
2022/07/18 09:02:33;;;;;;;4.47;2.05;;;;;;;21.55;67.73;99746.75;4388086;32;20078;-76
2022/07/18 09:05:02;;;;;;;5.60;1.40;;;;;;;21.18;70.10;99754.00;4380004;32;20035;-77
2022/07/18 09:07:31;;;;;;;9.10;1.27;;;;;;;21.11;66.34;99712.50;4385665;32;20040;-76
2022/07/18 09:10:02;;;;;;;5.57;1.35;;;;;;;21.39;68.97;99711.41;4379917;32;20055;-80
2022/07/18 09:12:33;;;;;;;5.65;2.25;;;;;;;21.49;67.62;99737.00;4395221;32;20059;-78
2022/07/18 09:15:10;;;;;;;3.62;1.67;;;;;;;21.52;65.09;99744.59;4394083;32;20054;-77
2022/07/18 09:17:37;;;;;;;2.17;1.15;;;;;;;21.16;61.58;99696.00;4369488;32;20088;-77
2022/07/18 09:20:16;;;;;;;3.20;1.58;;;;;;;21.59;61.66;99742.28;4384531;32;20086;-80
2022/07/18 09:22:47;;;;;;;2.28;2.00;;;;;;;21.73;62.65;99751.31;4383616;32;20027;-77
2022/07/18 09:25:17;;;;;;;2.72;1.15;;;;;;;21.89;62.92;99740.81;4379562;32;20065;-76
2022/07/18 09:27:48;;;;;;;11.12;2.33;;;;;;;21.78;62.71;99750.37;4385426;32;20087;-78
2022/07/18 09:30:20;;;;;;;7.32;1.90;;;;;;;21.83;65.08;99760.44;4386465;32;20069;-75
2022/07/18 09:33:02;;;;;;;3.30;1.65;;;;;;;22.20;62.48;99756.56;4386441;32;20223;-75
2022/07/18 09:35:29;;;;;;;;;;;;;;;22.09;60.92;99717.59;4385395;32;20061;-81
2022/07/18 09:38:08;;;;;;;8.07;2.97;;;;;;;22.25;61.66;99741.94;4386946;32;20003;-80
2022/07/18 09:40:40;;;;;;;10.05;3.53;;;;;;;22.05;62.85;99702.91;4387511;32;20035;-79
2022/07/18 09:43:09;;;;;;;2.87;1.50;;;;;;;22.22;59.07;99706.88;4384929;32;20078;-83
2022/07/18 09:45:44;;;;;;;3.42;1.40;;;;;;;22.45;61.37;99746.97;4387652;32;20055;-78
2022/07/18 09:48:13;;;;;;;2.08;1.40;;;;;;;22.14;59.50;99747.63;4387086;32;20035;-75
2022/07/18 09:50:49;;;;;;;7.70;1.77;;;;;;;21.79;56.25;99718.28;4399109;32;20035;-77
2022/07/18 09:53:48;;;;;;;10.27;2.12;;;;;;;22.37;57.40;99744.97;4401007;32;20054;-78
2022/07/18 09:56:25;;;;;;;5.55;1.90;;;;;;;22.19;57.83;99745.91;4370588;32;20043;-83
2022/07/18 09:58:55;;;;;;;5.05;3.47;;;;;;;22.13;60.73;99751.50;4388377;32;20288;-79
2022/07/18 10:01:22;;;;;;;2.80;1.23;;;;;;;22.38;59.16;99749.31;4387344;32;20039;-78
2022/07/18 10:03:50;;;;;;;2.60;1.30;;;;;;;22.52;58.20;99753.94;4383649;32;20376;-78
2022/07/18 10:06:18;;;;;;;3.53;1.40;;;;;;;22.34;56.95;99718.16;4384988;32;20091;-80
2022/07/18 10:08:45;;;;;;;1.77;1.45;;;;;;;22.26;60.14;99716.12;4388242;32;20935;-76
2022/07/18 10:11:12;;;;;;;2.90;1.40;;;;;;;22.24;61.71;99707.38;4384440;32;20035;-77
2022/07/18 10:13:38;;;;;;;2.92;1.40;;;;;;;22.38;61.70;99749.31;4387675;32;20056;-78
2022/07/18 10:16:05;;;;;;;3.62;1.10;;;;;;;21.76;62.30;99654.75;4386300;32;20049;-82
2022/07/18 10:18:35;;;;;;;2.75;1.20;;;;;;;22.58;61.97;99755.44;4387891;32;20042;-76
2022/07/18 10:21:10;;;;;;;3.20;1.30;;;;;;;22.92;60.86;99748.53;4402402;32;20080;-79
2022/07/18 10:23:46;;;;;;;3.20;1.55;;;;;;;23.07;59.98;99712.44;4388202;32;20104;-77
2022/07/18 10:26:26;;;;;;;1.60;1.25;;;;;;;23.40;56.24;99745.88;4373160;32;20388;-78
2022/07/18 10:28:59;;;;;;;2.45;1.33;;;;;;;22.88;55.25;99681.66;4386712;32;21217;-77
2022/07/18 10:31:30;;;;;;;4.37;1.62;;;;;;;23.18;55.48;99752.28;4384472;32;20346;-78
2022/07/18 10:34:07;;;;;;;3.58;1.30;;;;;;;22.79;57.65;99744.75;4394482;32;20067;-77
2022/07/18 10:36:34;;;;;;;1.55;1.02;;;;;;;22.81;60.38;99718.59;4386875;32;20028;-77
2022/07/18 10:39:07;;;;;;;2.05;1.45;;;;;;;22.87;58.07;99710.25;4385150;32;20076;-81
2022/07/18 10:41:42;;;;;;;2.87;1.90;;;;;;;23.29;57.54;99758.25;4386940;32;20065;-84
2022/07/18 10:44:38;;;;;;;2.87;1.75;;;;;;;23.46;55.99;99752.03;4401073;32;20050;-83
2022/07/18 10:47:17;;;;;;;3.85;1.35;;;;;;;23.25;59.35;99745.47;4382991;32;20053;-84
2022/07/18 10:49:53;;;;;;;6.45;2.70;;;;;;;23.19;58.10;99739.34;4384564;32;20440;-79
2022/07/18 10:52:25;;;;;;;4.18;2.53;;;;;;;23.19;57.65;99714.59;4385970;32;20065;-81
2022/07/18 10:55:01;;;;;;;2.05;1.95;;;;;;;23.30;54.62;99745.38;4383500;32;20311;-82
2022/07/18 10:57:49;;;;;;;1.20;1.10;;;;;;;23.48;54.01;99760.75;4373779;32;20382;-78
2022/07/18 11:00:29;;;;;;;3.05;1.60;;;;;;;23.38;55.24;99744.59;4353699;32;20045;-77
2022/07/18 11:03:04;;;;;;;2.80;1.50;;;;;;;23.37;55.11;99748.44;4372171;32;20455;-78
2022/07/18 11:05:31;;;;;;;2.58;1.48;;;;;;;23.32;56.35;99751.34;4371199;32;20047;-79
2022/07/18 11:07:58;;;;;;;3.92;1.35;;;;;;;23.27;57.80;99754.22;4375206;32;20394;-77
2022/07/18 11:10:54;;;;;;;9.93;1.48;;;;;;;22.99;58.51;99722.25;4374672;32;20337;-78
2022/07/18 11:13:31;;;;;;;2.85;1.65;;;;;;;23.07;57.18;99748.16;4376540;32;20052;-77
2022/07/18 11:16:04;;;;;;;3.60;2.12;;;;;;;23.42;58.11;99731.81;4376709;32;20108;-77
2022/07/18 11:18:33;;;;;;;1.75;1.45;;;;;;;23.65;56.24;99734.47;4376940;32;20047;-77
2022/07/18 11:20:59;;;;;;;3.50;2.12;;;;;;;23.82;56.15;99726.25;4374746;32;20087;-80
2022/07/18 11:23:27;;;;;;;4.15;1.90;;;;;;;24.02;55.11;99719.34;4376084;32;20035;-76
2022/07/18 11:25:57;;;;;;;3.28;1.30;;;;;;;24.04;54.33;99721.75;4375792;32;20055;-78
2022/07/18 11:28:27;;;;;;;2.40;1.48;;;;;;;23.97;54.55;99733.25;4379925;32;20065;-78
2022/07/18 11:31:08;;;;;;;3.58;1.23;;;;;;;23.95;55.29;99730.03;4374534;32;20090;-79
2022/07/18 11:33:37;;;;;;;6.50;1.40;;;;;;;24.04;55.05;99733.56;4377235;32;20043;-79
2022/07/18 11:36:06;;;;;;;4.18;1.35;;;;;;;23.75;54.96;99681.94;4375588;32;20101;-78